Time;durP1;ratioP1;P1;durP2;ratioP2;P2;SDS_P1;SDS_P2;PMS_P1;PMS_P2;Temp;Humidity;BMP_temperature;BMP_pressure;BME280_temperature;BME280_humidity;BME280_pressure;Samples;Min_cycle;Max_cycle;Signal;HPM_P1;HPM_P2
2021/06/12 00:00:36;;;;;;;12.23;10.38;;;21.20;75.60;;;;;;5115752;28;20016;-81
2021/06/12 00:03:03;;;;;;;12.23;9.77;;;21.20;75.80;;;;;;5080515;28;20032;-81
2021/06/12 00:05:29;;;;;;;14.27;10.57;;;21.10;75.90;;;;;;5115763;28;20032;-81
2021/06/12 00:07:55;;;;;;;14.57;9.70;;;21.10;76.20;;;;;;5115615;28;20058;-81
2021/06/12 00:10:25;;;;;;;12.93;10.25;;;21.00;76.30;;;;;;5115904;28;20444;-81
2021/06/12 00:12:50;;;;;;;13.27;9.73;;;21.00;76.40;;;;;;5097415;28;20578;-81
2021/06/12 00:15:19;;;;;;;14.23;9.75;;;20.90;76.40;;;;;;5107854;28;20113;-81
2021/06/12 00:17:45;;;;;;;14.00;9.10;;;20.90;76.50;;;;;;5086690;28;20205;-81
2021/06/12 00:20:16;;;;;;;14.00;8.57;;;20.90;76.50;;;;;;5080144;28;20032;-81
2021/06/12 00:22:44;;;;;;;14.45;9.70;;;20.90;76.60;;;;;;5115290;28;20049;-81
2021/06/12 00:25:18;;;;;;;15.23;9.13;;;20.80;76.70;;;;;;5096974;28;20392;-81
2021/06/12 00:27:44;;;;;;;13.98;9.63;;;20.70;76.90;;;;;;5115189;28;20092;-81
2021/06/12 00:30:11;;;;;;;11.10;8.57;;;20.70;77.10;;;;;;5079968;28;20028;-81
2021/06/12 00:32:37;;;;;;;12.23;8.57;;;20.60;77.20;;;;;;5114856;28;20031;-81
2021/06/12 00:35:05;;;;;;;10.63;8.63;;;20.50;77.20;;;;;;5115186;28;20028;-81
2021/06/12 00:37:30;;;;;;;14.27;8.90;;;20.40;77.30;;;;;;5115134;28;20036;-81
2021/06/12 00:39:56;;;;;;;13.65;9.10;;;20.40;77.40;;;;;;5115030;28;20120;-81
2021/06/12 00:42:22;;;;;;;14.75;8.68;;;20.30;77.60;;;;;;5072617;28;20032;-81
2021/06/12 00:44:47;;;;;;;13.20;8.85;;;20.30;78.50;;;;;;5076549;28;20055;-81
2021/06/12 00:47:13;;;;;;;14.38;9.10;;;20.20;77.90;;;;;;5062517;28;20024;-81
2021/06/12 00:49:39;;;;;;;9.73;8.32;;;20.20;78.70;;;;;;5114568;28;20024;-81
2021/06/12 00:52:05;;;;;;;12.90;8.55;;;20.20;78.10;;;;;;5112464;28;20035;-81
2021/06/12 00:54:30;;;;;;;13.50;9.32;;;20.20;78.20;;;;;;5114751;28;20051;-81
2021/06/12 00:56:57;;;;;;;13.93;9.65;;;20.20;78.20;;;;;;5096441;28;20415;-81
2021/06/12 00:59:24;;;;;;;14.27;8.80;;;20.20;78.40;;;;;;5114647;28;20414;-81
2021/06/12 01:01:50;;;;;;;12.23;8.30;;;20.10;78.50;;;;;;5114441;28;20075;-81
2021/06/12 01:04:16;;;;;;;14.52;8.82;;;20.00;78.70;;;;;;5100648;28;20075;-81
2021/06/12 01:06:42;;;;;;;14.85;9.45;;;20.00;78.80;;;;;;5094297;28;20530;-81
2021/06/12 01:09:08;;;;;;;13.93;9.98;;;20.00;79.00;;;;;;5059188;28;20415;-81
2021/06/12 01:11:44;;;;;;;15.15;9.30;;;19.90;79.20;;;;;;5076271;28;20024;-81
2021/06/12 01:14:21;;;;;;;12.07;8.93;;;19.90;79.40;;;;;;5075833;28;20107;-81
2021/06/12 01:17:33;;;;;;;12.48;8.65;;;19.80;79.60;;;;;;5075541;28;20044;-81
2021/06/12 01:20:07;;;;;;;11.60;8.35;;;19.80;79.70;;;;;;5093674;28;20511;-81
2021/06/12 01:22:45;;;;;;;13.35;9.70;;;19.80;79.80;;;;;;5075675;28;20020;-81
2021/06/12 01:25:49;;;;;;;13.07;8.90;;;19.80;80.00;;;;;;5093875;28;20043;-81
2021/06/12 01:28:20;;;;;;;10.55;8.40;;;19.70;80.10;;;;;;5093492;28;20484;-81
2021/06/12 01:30:51;;;;;;;15.60;9.18;;;19.70;80.00;;;;;;5093691;28;20023;-81
2021/06/12 01:33:17;;;;;;;10.32;8.65;;;19.70;80.00;;;;;;5093702;28;20032;-81
2021/06/12 01:35:47;;;;;;;13.07;9.18;;;19.70;79.90;;;;;;5093796;28;20023;-81
2021/06/12 01:38:23;;;;;;;12.15;8.07;;;19.70;80.20;;;;;;5101980;28;20422;-81
2021/06/12 01:40:49;;;;;;;10.57;7.55;;;19.70;80.40;;;;;;5114005;28;20030;-81
2021/06/12 01:43:17;;;;;;;13.45;7.88;;;19.60;80.30;;;;;;5114252;28;20039;-81
2021/06/12 01:45:46;;;;;;;11.57;8.10;;;19.70;80.40;;;;;;5114002;28;20030;-81
2021/06/12 01:48:13;;;;;;;15.68;7.93;;;19.70;80.30;;;;;;5100941;28;20492;-81
2021/06/12 01:50:41;;;;;;;10.25;7.20;;;19.70;80.20;;;;;;5113883;28;20028;-81
2021/06/12 01:53:08;;;;;;;10.43;6.70;;;19.60;80.20;;;;;;5113854;28;20073;-81
2021/06/12 01:55:36;;;;;;;9.85;7.35;;;19.70;80.10;;;;;;5113960;28;20023;-81
2021/06/12 01:58:08;;;;;;;8.25;6.50;;;19.60;80.00;;;;;;5113771;28;20024;-82
2021/06/12 02:00:36;;;;;;;9.52;6.90;;;19.60;79.90;;;;;;5113855;28;20031;-81
2021/06/12 02:03:02;;;;;;;8.90;6.25;;;19.60;79.90;;;;;;5101647;28;20553;-81
2021/06/12 02:05:29;;;;;;;10.57;6.40;;;19.50;80.00;;;;;;5095513;28;20032;-81
2021/06/12 02:07:56;;;;;;;9.77;6.20;;;19.50;80.00;;;;;;5109572;28;20042;-81
2021/06/12 02:10:25;;;;;;;8.15;5.90;;;19.50;80.00;;;;;;5093302;28;20055;-81
2021/06/12 02:12:52;;;;;;;8.80;5.95;;;19.50;79.90;;;;;;5075409;28;20431;-81
2021/06/12 02:15:19;;;;;;;9.90;5.68;;;19.50;80.00;;;;;;5093279;28;20130;-81
2021/06/12 02:17:46;;;;;;;11.18;5.38;;;19.50;80.00;;;;;;5093816;28;20036;-81
2021/06/12 02:20:16;;;;;;;13.05;5.68;;;19.50;80.10;;;;;;5113694;28;20384;-81
2021/06/12 02:22:44;;;;;;;11.13;5.90;;;19.40;80.10;;;;;;5078813;28;20126;-81
2021/06/12 02:25:11;;;;;;;8.27;6.32;;;19.30;80.30;;;;;;5095234;28;20020;-81
2021/06/12 02:27:41;;;;;;;10.00;5.78;;;19.30;80.50;;;;;;5094920;28;20034;-81
2021/06/12 02:30:08;;;;;;;9.57;5.70;;;19.20;80.60;;;;;;5095118;28;20027;-81
2021/06/12 02:32:38;;;;;;;10.75;5.43;;;19.20;80.70;;;;;;5095275;28;20130;-81
2021/06/12 02:35:06;;;;;;;10.20;5.22;;;19.20;80.90;;;;;;5113349;28;20012;-81
2021/06/12 02:37:32;;;;;;;9.35;6.10;;;19.20;80.90;;;;;;5113223;28;20475;-81
2021/06/12 02:39:58;;;;;;;8.88;5.03;;;19.20;81.10;;;;;;5116656;28;20051;-82
2021/06/12 02:42:23;;;;;;;7.88;5.68;;;19.10;81.00;;;;;;5098178;28;20031;-81
2021/06/12 02:44:49;;;;;;;11.50;5.88;;;19.10;81.10;;;;;;5108339;28;20373;-81
2021/06/12 02:47:16;;;;;;;11.63;6.05;;;19.00;81.10;;;;;;5116725;28;20039;-81
2021/06/12 02:49:43;;;;;;;9.75;5.75;;;19.00;81.10;;;;;;5116684;28;20112;-81
2021/06/12 02:52:19;;;;;;;8.13;6.18;;;19.00;81.20;;;;;;5098733;28;20517;-81
2021/06/12 02:54:47;;;;;;;9.80;6.28;;;19.00;81.30;;;;;;5078739;28;20438;-81
2021/06/12 02:57:15;;;;;;;10.97;6.27;;;18.90;81.30;;;;;;5096303;28;20023;-81
2021/06/12 02:59:43;;;;;;;10.40;6.82;;;18.90;81.40;;;;;;5078326;28;20388;-81
2021/06/12 03:02:10;;;;;;;;;;;18.80;81.60;;;;;;5078709;28;20114;-81
2021/06/12 03:04:37;;;;;;;11.50;6.20;;;18.80;81.40;;;;;;5062000;28;19908;-81
2021/06/12 03:07:04;;;;;;;10.23;5.97;;;18.70;82.00;;;;;;5096380;28;20024;-82
2021/06/12 03:09:30;;;;;;;11.07;6.20;;;18.70;82.10;;;;;;5078340;28;20063;-81
2021/06/12 03:11:57;;;;;;;11.50;6.22;;;18.70;82.30;;;;;;5104407;28;20059;-81
2021/06/12 03:14:25;;;;;;;7.85;6.03;;;18.70;82.30;;;;;;5089443;28;20020;-81
2021/06/12 03:16:52;;;;;;;8.55;5.60;;;18.70;83.10;;;;;;5096205;28;20436;-81
2021/06/12 03:19:19;;;;;;;11.90;6.18;;;18.60;82.50;;;;;;5078383;28;20031;-81
2021/06/12 03:21:47;;;;;;;11.50;6.47;;;18.70;82.70;;;;;;5096041;28;20028;-81
2021/06/12 03:24:14;;;;;;;10.73;5.80;;;18.60;82.70;;;;;;5096223;28;20020;-81
2021/06/12 03:26:41;;;;;;;7.53;4.97;;;18.60;82.80;;;;;;5063989;28;20035;-81
2021/06/12 03:29:08;;;;;;;12.93;6.25;;;18.60;83.60;;;;;;5080445;28;20028;-81
2021/06/12 03:31:34;;;;;;;14.40;5.80;;;18.60;83.10;;;;;;5077844;28;20573;-81
2021/06/12 03:34:00;;;;;;;9.88;5.57;;;18.60;83.00;;;;;;5095889;28;20062;-81
2021/06/12 03:36:27;;;;;;;8.25;5.32;;;18.60;83.00;;;;;;5078232;28;20110;-81
2021/06/12 03:38:53;;;;;;;10.93;6.13;;;18.60;83.00;;;;;;5116399;28;20028;-81
2021/06/12 03:41:21;;;;;;;9.73;5.55;;;18.60;83.00;;;;;;5098330;28;20046;-81
2021/06/12 03:43:48;;;;;;;8.02;5.28;;;18.60;83.10;;;;;;5091604;28;20036;-81
2021/06/12 03:46:15;;;;;;;8.40;5.20;;;18.70;83.20;;;;;;5082584;28;20027;-82
2021/06/12 03:48:44;;;;;;;8.02;5.50;;;18.70;83.20;;;;;;5116001;28;20430;-81
2021/06/12 03:51:12;;;;;;;10.73;6.22;;;18.60;83.30;;;;;;5112085;28;20069;-81
2021/06/12 03:53:45;;;;;;;10.88;6.28;;;18.70;83.40;;;;;;5095609;28;20024;-81
2021/06/12 03:56:16;;;;;;;7.55;5.78;;;18.60;83.30;;;;;;5095370;28;20081;-81
2021/06/12 03:58:44;;;;;;;10.55;6.13;;;18.70;83.60;;;;;;5077411;28;20028;-81
2021/06/12 04:01:19;;;;;;;14.80;6.45;;;18.70;83.60;;;;;;5106344;28;20491;-81
2021/06/12 04:03:45;;;;;;;9.68;5.95;;;18.60;83.80;;;;;;5095285;28;20454;-81
2021/06/12 04:06:12;;;;;;;9.30;6.43;;;18.70;83.80;;;;;;5104906;28;20685;-81
2021/06/12 04:08:38;;;;;;;11.10;6.32;;;18.70;83.90;;;;;;5097347;28;20387;-81
2021/06/12 04:11:05;;;;;;;10.60;5.90;;;18.60;83.90;;;;;;5097677;28;20028;-81
2021/06/12 04:13:31;;;;;;;11.25;7.03;;;18.60;83.90;;;;;;5115741;28;20464;-81
2021/06/12 04:15:57;;;;;;;11.50;7.47;;;18.70;84.10;;;;;;5107567;28;20055;-81
2021/06/12 04:18:22;;;;;;;13.13;7.32;;;18.70;84.20;;;;;;5079377;28;20032;-81
2021/06/12 04:20:48;;;;;;;9.60;7.30;;;18.80;84.20;;;;;;5083407;28;20063;-81
2021/06/12 04:23:14;;;;;;;11.15;6.95;;;18.80;84.20;;;;;;5077188;28;20024;-81
2021/06/12 04:25:40;;;;;;;10.60;7.70;;;18.80;84.20;;;;;;5094987;28;20050;-81
2021/06/12 04:28:06;;;;;;;14.32;7.35;;;18.80;84.30;;;;;;5060351;28;20032;-81
2021/06/12 04:30:33;;;;;;;10.23;7.20;;;18.90;84.40;;;;;;5094934;28;20411;-81
2021/06/12 04:33:00;;;;;;;10.90;6.40;;;18.90;84.30;;;;;;5060004;28;20032;-81
2021/06/12 04:35:28;;;;;;;8.48;6.25;;;19.00;84.20;;;;;;5076556;28;20031;-82
2021/06/12 04:37:53;;;;;;;10.82;6.72;;;19.00;84.10;;;;;;5060267;28;20043;-82
2021/06/12 04:40:19;;;;;;;13.25;7.05;;;19.00;84.00;;;;;;5076716;28;20103;-81
2021/06/12 04:42:45;;;;;;;14.00;6.80;;;19.10;84.00;;;;;;5059793;28;20032;-81
2021/06/12 04:45:11;;;;;;;12.68;7.28;;;19.10;83.90;;;;;;5094635;28;20556;-81
2021/06/12 04:47:36;;;;;;;8.82;6.85;;;19.20;83.90;;;;;;5094647;28;20103;-83
2021/06/12 04:50:05;;;;;;;13.23;7.20;;;19.20;83.90;;;;;;5076143;28;20027;-83
2021/06/12 04:52:31;;;;;;;;;;;19.20;83.90;;;;;;5099049;28;20024;-84
2021/06/12 04:54:56;;;;;;;10.75;6.90;;;19.20;83.60;;;;;;5084855;28;20387;-84
2021/06/12 04:57:22;;;;;;;10.60;7.18;;;19.20;83.70;;;;;;5114315;28;20150;-83
2021/06/12 04:59:48;;;;;;;8.63;6.22;;;19.20;83.70;;;;;;5102236;28;20020;-84
2021/06/12 05:02:14;;;;;;;10.43;6.63;;;19.20;83.80;;;;;;5093394;28;20028;-83
2021/06/12 05:04:40;;;;;;;8.48;6.45;;;19.20;83.80;;;;;;5094274;28;20035;-84
2021/06/12 05:07:05;;;;;;;8.80;6.20;;;19.30;83.70;;;;;;5094115;28;20082;-84
2021/06/12 05:09:31;;;;;;;9.27;6.40;;;19.30;83.60;;;;;;5096481;28;20024;-83
2021/06/12 05:11:58;;;;;;;9.35;6.05;;;19.40;83.50;;;;;;5096367;28;20503;-84
2021/06/12 05:14:24;;;;;;;10.05;6.30;;;19.40;83.30;;;;;;5114376;28;20024;-84
2021/06/12 05:16:49;;;;;;;10.60;6.28;;;19.40;83.20;;;;;;5110101;28;20119;-83
2021/06/12 05:19:15;;;;;;;8.65;6.10;;;19.50;83.20;;;;;;5094098;28;20055;-84
2021/06/12 05:21:45;;;;;;;13.65;6.30;;;19.50;83.10;;;;;;5095142;28;20032;-83
2021/06/12 05:24:11;;;;;;;12.43;6.43;;;19.50;82.90;;;;;;5114179;28;20024;-84
2021/06/12 05:26:36;;;;;;;8.65;5.90;;;19.60;82.60;;;;;;5096230;28;20076;-83
2021/06/12 05:29:02;;;;;;;9.80;6.43;;;19.60;82.40;;;;;;5096077;28;20084;-84
2021/06/12 05:31:28;;;;;;;10.52;6.22;;;19.70;82.30;;;;;;5114214;28;20099;-83
2021/06/12 05:33:54;;;;;;;11.90;7.00;;;19.80;82.10;;;;;;5114167;28;20586;-83
2021/06/12 05:36:19;;;;;;;12.50;7.10;;;19.80;81.90;;;;;;5095969;28;20024;-84
2021/06/12 05:38:45;;;;;;;11.23;6.82;;;19.90;81.60;;;;;;5113879;28;20103;-83
2021/06/12 05:41:11;;;;;;;12.18;6.55;;;20.00;81.50;;;;;;5078978;28;20115;-81
2021/06/12 05:43:36;;;;;;;15.75;6.88;;;19.90;81.40;;;;;;5113712;28;20101;-81
2021/06/12 05:46:02;;;;;;;13.85;7.10;;;20.00;81.40;;;;;;5078862;28;20387;-81
2021/06/12 05:48:28;;;;;;;12.57;6.80;;;20.10;81.20;;;;;;5113560;28;20039;-81
2021/06/12 05:50:54;;;;;;;15.50;8.45;;;20.10;81.00;;;;;;5093815;28;20016;-81
2021/06/12 05:53:20;;;;;;;13.10;8.60;;;20.10;80.90;;;;;;5081734;28;20030;-81
2021/06/12 05:55:45;;;;;;;12.70;7.80;;;20.00;80.90;;;;;;5076678;28;20032;-81
2021/06/12 05:58:11;;;;;;;15.75;8.57;;;20.00;80.90;;;;;;5093440;28;20035;-81
2021/06/12 06:00:37;;;;;;;14.45;9.20;;;19.90;80.90;;;;;;5078239;28;20036;-81
2021/06/12 06:03:02;;;;;;;16.30;10.32;;;19.90;80.70;;;;;;5095643;28;20545;-81
2021/06/12 06:05:28;;;;;;;16.30;10.25;;;19.90;80.60;;;;;;5095435;28;20511;-81
2021/06/12 06:07:54;;;;;;;15.90;10.40;;;19.90;80.60;;;;;;5113702;28;20024;-81
2021/06/12 06:10:20;;;;;;;18.75;10.10;;;19.80;80.80;;;;;;5094888;28;20139;-81
2021/06/12 06:12:47;;;;;;;20.40;11.30;;;19.80;80.80;;;;;;5114883;28;20051;-81
2021/06/12 06:15:13;;;;;;;18.35;10.95;;;19.80;80.90;;;;;;5117053;28;20031;-81
2021/06/12 06:17:40;;;;;;;21.92;11.57;;;19.80;81.00;;;;;;5117782;28;20031;-81
2021/06/12 06:20:09;;;;;;;18.40;12.30;;;19.80;81.10;;;;;;5117833;28;20080;-81
2021/06/12 06:22:36;;;;;;;17.95;11.45;;;19.90;81.00;;;;;;5103206;28;20099;-81
2021/06/12 06:25:03;;;;;;;19.38;12.77;;;19.90;80.70;;;;;;5097340;28;20024;-81
2021/06/12 06:27:29;;;;;;;19.80;13.25;;;20.00;80.40;;;;;;5046154;28;20028;-81
2021/06/12 06:29:54;;;;;;;19.65;13.82;;;20.00;80.20;;;;;;5079213;28;20773;-81
2021/06/12 06:32:20;;;;;;;23.40;15.25;;;20.00;80.10;;;;;;5105145;28;20020;-81
2021/06/12 06:34:46;;;;;;;22.42;15.60;;;20.00;80.10;;;;;;5115003;28;20408;-81
2021/06/12 06:37:11;;;;;;;22.48;16.75;;;20.00;80.10;;;;;;5096982;28;20089;-81
2021/06/12 06:39:37;;;;;;;31.17;19.02;;;20.00;80.10;;;;;;5097059;28;20036;-81
2021/06/12 06:42:03;;;;;;;30.70;20.00;;;19.90;79.80;;;;;;5117507;28;20032;-81
2021/06/12 06:44:29;;;;;;;33.58;19.35;;;19.90;79.60;;;;;;5099025;28;20028;-81
2021/06/12 06:46:55;;;;;;;30.67;18.83;;;19.90;80.00;;;;;;5093725;28;20391;-81
2021/06/12 06:49:21;;;;;;;27.77;18.27;;;19.90;79.80;;;;;;5098776;28;20451;-81
2021/06/12 06:51:46;;;;;;;34.15;20.85;;;19.90;79.80;;;;;;5092418;28;20038;-81
2021/06/12 06:54:12;;;;;;;27.67;19.20;;;19.90;80.00;;;;;;5087676;28;20024;-81
2021/06/12 06:56:38;;;;;;;31.20;19.63;;;19.90;80.50;;;;;;5081696;28;20040;-81
2021/06/12 06:59:04;;;;;;;31.80;20.75;;;19.90;79.80;;;;;;5078336;28;20088;-81
2021/06/12 07:01:30;;;;;;;29.80;19.17;;;19.90;79.80;;;;;;5078230;28;20035;-81
2021/06/12 07:03:55;;;;;;;31.42;21.10;;;19.90;79.60;;;;;;5083622;28;20400;-81
2021/06/12 07:06:21;;;;;;;31.98;21.48;;;20.00;79.40;;;;;;5096541;28;20036;-81
2021/06/12 07:08:47;;;;;;;29.52;19.48;;;20.00;79.30;;;;;;5064341;28;20123;-81
2021/06/12 07:11:12;;;;;;;28.20;20.13;;;20.00;79.30;;;;;;5078241;28;20078;-81
2021/06/12 07:13:38;;;;;;;30.45;20.67;;;20.00;79.30;;;;;;5078486;28;20036;-81
2021/06/12 07:16:04;;;;;;;30.77;20.92;;;20.00;79.50;;;;;;5115554;28;20052;-79
2021/06/12 07:18:30;;;;;;;31.77;21.20;;;20.00;79.70;;;;;;5064837;28;20451;-79
2021/06/12 07:20:56;;;;;;;34.35;22.67;;;19.90;79.60;;;;;;5081393;28;20032;-80
2021/06/12 07:23:21;;;;;;;26.90;19.25;;;19.90;79.60;;;;;;5083544;28;20028;-80
2021/06/12 07:25:47;;;;;;;34.40;22.30;;;19.90;79.70;;;;;;5095144;28;20419;-81
2021/06/12 07:28:14;;;;;;;30.48;21.75;;;19.90;79.50;;;;;;5084172;28;20031;-81
2021/06/12 07:30:42;;;;;;;33.25;21.10;;;19.90;79.50;;;;;;5095335;28;20015;-81
2021/06/12 07:33:09;;;;;;;37.90;25.45;;;20.00;79.50;;;;;;5097916;28;20049;-81
2021/06/12 07:35:35;;;;;;;33.80;22.90;;;19.90;79.50;;;;;;5107449;28;20110;-82
2021/06/12 07:38:02;;;;;;;37.92;22.40;;;19.90;79.70;;;;;;5116279;28;20094;-76
2021/06/12 07:40:28;;;;;;;37.40;24.30;;;19.80;79.80;;;;;;5116168;28;20055;-76
2021/06/12 07:42:54;;;;;;;29.35;21.70;;;19.80;79.90;;;;;;5116190;28;20436;-75
2021/06/12 07:45:20;;;;;;;39.35;26.23;;;19.80;80.00;;;;;;5097922;28;20490;-76
2021/06/12 07:47:46;;;;;;;35.38;24.50;;;19.80;80.00;;;;;;5116294;28;20028;-77
2021/06/12 07:50:12;;;;;;;34.45;23.55;;;19.80;80.00;;;;;;5115933;28;20106;-77
2021/06/12 07:52:38;;;;;;;32.08;22.88;;;19.70;80.10;;;;;;5116008;28;20034;-77
2021/06/12 07:55:04;;;;;;;30.52;23.13;;;19.80;80.30;;;;;;5098103;28;20027;-80
2021/06/12 07:57:29;;;;;;;39.03;23.50;;;19.90;80.30;;;;;;5116410;28;20034;-83
2021/06/12 07:59:55;;;;;;;29.40;22.20;;;20.00;80.00;;;;;;5064224;28;20031;-83
2021/06/12 08:02:21;;;;;;;33.83;22.55;;;20.10;79.70;;;;;;5076339;28;20396;-82
2021/06/12 08:04:46;;;;;;;34.38;24.58;;;20.30;79.10;;;;;;5095160;28;20036;-82
2021/06/12 08:07:13;;;;;;;34.08;25.20;;;20.40;78.40;;;;;;5095107;28;20024;-83
2021/06/12 08:09:39;;;;;;;33.10;25.85;;;20.50;78.00;;;;;;5077241;28;20028;-82
2021/06/12 08:12:05;;;;;;;37.00;23.27;;;20.70;77.70;;;;;;5095081;28;20028;-83
2021/06/12 08:14:31;;;;;;;37.15;27.30;;;20.80;77.40;;;;;;5095083;28;20039;-82
2021/06/12 08:16:56;;;;;;;35.70;25.35;;;21.10;76.60;;;;;;5109511;28;20047;-82
2021/06/12 08:19:22;;;;;;;34.90;25.48;;;21.30;75.90;;;;;;5076686;28;20028;-82
2021/06/12 08:21:47;;;;;;;31.95;24.63;;;21.40;75.40;;;;;;5087517;28;20027;-82
2021/06/12 08:24:13;;;;;;;31.25;24.33;;;21.40;75.00;;;;;;5115302;28;20028;-82
2021/06/12 08:26:39;;;;;;;33.22;24.35;;;21.60;74.40;;;;;;5096862;28;20477;-82
2021/06/12 08:29:05;;;;;;;32.17;24.50;;;21.90;73.40;;;;;;5097091;28;20535;-82
2021/06/12 08:31:34;;;;;;;34.70;24.83;;;22.00;73.20;;;;;;5114789;28;20118;-82
2021/06/12 08:34:00;;;;;;;31.63;23.23;;;22.20;72.60;;;;;;5096652;28;20035;-82
2021/06/12 08:36:26;;;;;;;28.38;22.33;;;22.40;71.90;;;;;;5094723;28;20066;-81
2021/06/12 08:38:52;;;;;;;31.67;24.38;;;22.50;71.20;;;;;;5114477;28;20051;-82
2021/06/12 08:41:18;;;;;;;29.33;22.13;;;22.60;71.00;;;;;;5108236;28;20038;-82
2021/06/12 08:43:44;;;;;;;30.42;23.98;;;22.50;71.00;;;;;;5096822;28;20063;-82
2021/06/12 08:46:11;;;;;;;35.75;25.73;;;22.40;71.10;;;;;;5114610;28;20028;-82
2021/06/12 08:48:37;;;;;;;31.13;24.13;;;22.30;71.30;;;;;;5096556;28;20024;-82
2021/06/12 08:51:03;;;;;;;28.60;23.63;;;22.10;71.70;;;;;;5096759;28;20032;-82
2021/06/12 08:53:31;;;;;;;31.95;24.55;;;22.00;72.30;;;;;;5114598;28;20024;-82
2021/06/12 08:56:00;;;;;;;31.02;23.42;;;21.90;72.40;;;;;;5097255;28;20028;-82
2021/06/12 08:58:26;;;;;;;33.60;25.08;;;21.90;72.30;;;;;;5096067;28;20491;-82
2021/06/12 09:00:51;;;;;;;32.08;23.30;;;21.90;72.60;;;;;;5096283;28;20050;-82
2021/06/12 09:03:27;;;;;;;34.30;24.30;;;21.90;72.60;;;;;;5109642;28;20104;-82
2021/06/12 09:05:58;;;;;;;35.33;25.52;;;21.90;72.60;;;;;;5095785;28;20035;-82
2021/06/12 09:08:26;;;;;;;38.45;25.25;;;21.90;73.00;;;;;;5095940;28;20388;-82
2021/06/12 09:11:10;;;;;;;32.15;24.10;;;21.90;72.60;;;;;;5089168;28;20086;-84
2021/06/12 09:13:46;;;;;;;31.00;22.58;;;21.80;73.30;;;;;;5093958;28;20031;-82
2021/06/12 09:16:37;;;;;;;34.58;24.00;;;21.80;73.20;;;;;;5106754;28;20710;-82
2021/06/12 09:19:21;;;;;;;27.48;22.25;;;21.80;72.40;;;;;;5086804;28;20081;-83
2021/06/12 09:21:49;;;;;;;31.52;24.85;;;21.80;72.60;;;;;;5094888;28;20392;-83
2021/06/12 09:24:32;;;;;;;30.00;22.48;;;21.80;72.50;;;;;;5095585;28;20105;-83
2021/06/12 09:26:59;;;;;;;27.73;21.08;;;21.80;72.60;;;;;;5113063;28;20421;-82
2021/06/12 09:29:43;;;;;;;30.02;22.55;;;21.80;72.60;;;;;;5076226;28;20081;-81
2021/06/12 09:32:17;;;;;;;30.67;23.70;;;21.90;72.20;;;;;;5102750;28;20055;-81
2021/06/12 09:34:44;;;;;;;28.58;21.42;;;22.00;72.10;;;;;;5111947;28;20115;-82
2021/06/12 09:37:31;;;;;;;28.42;21.02;;;22.20;72.10;;;;;;5102338;28;20028;-82
2021/06/12 09:40:01;;;;;;;27.35;21.95;;;22.40;71.20;;;;;;5079502;28;20015;-81
2021/06/12 09:42:36;;;;;;;32.90;23.75;;;22.50;70.60;;;;;;5095590;28;20056;-81
2021/06/12 09:45:07;;;;;;;33.42;22.98;;;22.50;70.60;;;;;;5092256;28;20020;-81
2021/06/12 09:47:32;;;;;;;28.65;21.08;;;22.60;71.10;;;;;;5092825;28;20115;-81
2021/06/12 09:49:59;;;;;;;26.25;21.33;;;22.80;69.80;;;;;;5075628;28;20103;-81
2021/06/12 09:52:25;;;;;;;29.15;21.30;;;23.00;69.30;;;;;;5075324;28;20027;-81
2021/06/12 09:54:51;;;;;;;28.15;21.17;;;23.30;68.70;;;;;;5075640;28;20024;-75
2021/06/12 09:57:23;;;;;;;30.38;22.05;;;23.50;68.30;;;;;;5075214;28;20055;-77
2021/06/12 09:59:55;;;;;;;27.08;20.45;;;23.60;67.10;;;;;;5093456;28;20067;-76
2021/06/12 10:02:38;;;;;;;31.27;21.88;;;23.60;66.80;;;;;;5075323;28;20055;-76
2021/06/12 10:05:06;;;;;;;26.33;21.13;;;23.40;67.10;;;;;;5093311;28;20526;-76
2021/06/12 10:07:32;;;;;;;26.65;18.90;;;23.30;67.70;;;;;;5091044;28;20034;-76
2021/06/12 10:10:03;;;;;;;26.75;22.55;;;23.20;68.10;;;;;;5101983;28;20096;-77
2021/06/12 10:12:28;;;;;;;26.23;18.98;;;23.20;68.20;;;;;;5105109;28;20062;-77
2021/06/12 10:14:57;;;;;;;24.75;18.55;;;23.20;67.60;;;;;;5106776;28;20475;-77
2021/06/12 10:17:23;;;;;;;30.83;20.05;;;23.10;67.90;;;;;;5077353;28;20059;-77
2021/06/12 10:19:53;;;;;;;26.42;20.50;;;23.00;68.10;;;;;;5074972;28;20401;-77
2021/06/12 10:22:20;;;;;;;24.67;20.38;;;22.80;68.20;;;;;;5092916;28;20039;-76
2021/06/12 10:24:47;;;;;;;24.88;19.88;;;22.60;68.70;;;;;;5103013;28;20046;-77
2021/06/12 10:27:14;;;;;;;27.13;21.88;;;22.40;69.20;;;;;;5111356;28;20494;-77
2021/06/12 10:29:42;;;;;;;28.35;21.40;;;22.30;69.90;;;;;;5088831;28;20055;-76
2021/06/12 10:32:09;;;;;;;29.02;23.00;;;22.30;70.40;;;;;;5092658;28;20054;-76
2021/06/12 10:34:36;;;;;;;26.35;20.92;;;22.40;70.50;;;;;;5097913;28;20020;-76
2021/06/12 10:37:07;;;;;;;26.50;19.55;;;22.70;69.70;;;;;;5112363;28;20028;-76
2021/06/12 10:39:35;;;;;;;27.92;20.17;;;23.10;68.90;;;;;;5107147;28;20020;-76
2021/06/12 10:42:12;;;;;;;20.88;15.13;;;23.50;67.60;;;;;;5075037;28;20024;-76
2021/06/12 10:44:38;;;;;;;20.02;14.95;;;23.70;65.90;;;;;;5079723;28;20031;-76
2021/06/12 10:47:04;;;;;;;20.48;13.52;;;23.70;64.60;;;;;;5052866;28;20024;-76
2021/06/12 10:49:33;;;;;;;15.70;12.80;;;23.60;64.60;;;;;;5093027;28;20111;-76
2021/06/12 10:52:04;;;;;;;20.80;13.90;;;23.30;65.30;;;;;;5095752;28;20020;-76
2021/06/12 10:54:37;;;;;;;18.10;13.88;;;23.20;65.70;;;;;;5083006;28;20016;-76
2021/06/12 10:57:02;;;;;;;18.67;11.98;;;23.30;65.90;;;;;;5113058;28;20016;-76
2021/06/12 10:59:37;;;;;;;12.13;9.73;;;23.50;65.50;;;;;;5100666;28;20028;-76
2021/06/12 11:02:27;;;;;;;11.90;5.85;;;23.70;64.20;;;;;;5099584;28;20020;-75
2021/06/12 11:05:03;;;;;;;9.68;5.38;;;23.80;61.70;;;;;;5084517;28;20491;-77
2021/06/12 11:07:41;;;;;;;7.32;4.18;;;23.70;61.10;;;;;;5065868;28;20036;-76
2021/06/12 11:10:12;;;;;;;9.75;3.85;;;23.50;61.40;;;;;;5098277;28;20031;-76
2021/06/12 11:12:52;;;;;;;7.93;4.70;;;23.40;61.20;;;;;;5106361;28;20020;-76
2021/06/12 11:15:33;;;;;;;8.10;4.13;;;23.30;60.70;;;;;;5105031;28;20042;-77
2021/06/12 11:18:20;;;;;;;5.30;3.60;;;23.40;60.10;;;;;;5102069;28;20365;-76
2021/06/12 11:21:10;;;;;;;8.52;3.67;;;23.50;59.50;;;;;;5088280;28;20035;-76
2021/06/12 11:23:53;;;;;;;7.55;2.88;;;23.70;58.30;;;;;;5104028;28;20023;-75
2021/06/12 11:26:20;;;;;;;6.10;3.00;;;24.00;57.50;;;;;;5116323;28;20089;-77
2021/06/12 11:28:47;;;;;;;6.18;2.90;;;24.10;56.90;;;;;;5099840;28;20051;-78
2021/06/12 11:31:29;;;;;;;7.23;2.83;;;24.00;57.30;;;;;;5104397;28;20057;-78
2021/06/12 11:34:18;;;;;;;6.22;2.88;;;24.00;55.40;;;;;;5100022;28;20412;-77
2021/06/12 11:36:45;;;;;;;6.18;2.50;;;24.00;55.30;;;;;;5111167;28;20106;-78
2021/06/12 11:39:11;;;;;;;5.50;2.40;;;23.80;54.90;;;;;;5116070;28;20032;-78
2021/06/12 11:41:37;;;;;;;8.93;2.47;;;23.90;54.20;;;;;;5082661;28;20080;-78
2021/06/12 11:44:02;;;;;;;4.88;2.28;;;24.10;52.90;;;;;;5097534;28;20027;-77
2021/06/12 11:46:28;;;;;;;5.97;2.30;;;24.20;52.60;;;;;;5111495;28;20383;-77
2021/06/12 11:48:54;;;;;;;5.50;2.55;;;24.30;53.00;;;;;;5116150;28;20360;-78
2021/06/12 11:51:22;;;;;;;6.78;2.58;;;24.60;52.40;;;;;;5106954;28;20019;-78
2021/06/12 11:54:11;;;;;;;3.35;2.20;;;24.80;51.90;;;;;;5111517;28;20043;-78
2021/06/12 11:56:45;;;;;;;8.90;2.55;;;25.10;51.60;;;;;;5086867;28;20029;-78
2021/06/12 11:59:14;;;;;;;8.93;2.60;;;25.30;50.20;;;;;;5093243;28;20034;-77
2021/06/12 12:01:47;;;;;;;5.13;2.42;;;25.40;50.10;;;;;;5115697;28;20027;-78
2021/06/12 12:04:17;;;;;;;5.78;1.95;;;25.60;50.00;;;;;;5115737;28;20028;-78
2021/06/12 12:06:52;;;;;;;5.53;2.28;;;25.80;50.30;;;;;;5078634;28;20035;-78
2021/06/12 12:09:26;;;;;;;3.35;2.03;;;25.80;49.40;;;;;;5077147;28;20024;-78
2021/06/12 12:11:56;;;;;;;6.45;2.10;;;25.70;48.00;;;;;;5095024;28;20102;-77
2021/06/12 12:14:46;;;;;;;7.15;2.25;;;25.60;48.70;;;;;;5104184;28;20039;-78
2021/06/12 12:17:27;;;;;;;11.82;2.72;;;25.40;48.50;;;;;;5085584;28;20523;-78
2021/06/12 12:20:08;;;;;;;5.45;2.55;;;25.30;48.10;;;;;;5112115;28;20023;-78
2021/06/12 12:22:47;;;;;;;5.00;2.33;;;25.10;48.10;;;;;;5092619;28;20458;-78
2021/06/12 12:25:16;;;;;;;6.63;2.33;;;25.10;49.10;;;;;;5114429;28;20027;-78
2021/06/12 12:27:41;;;;;;;4.63;1.95;;;25.40;50.00;;;;;;5114928;28;20035;-76
2021/06/12 12:30:10;;;;;;;5.97;2.20;;;25.50;48.80;;;;;;5092442;28;20024;-78
2021/06/12 12:32:36;;;;;;;8.45;2.35;;;25.60;47.60;;;;;;5084404;28;20481;-78
2021/06/12 12:35:16;;;;;;;5.15;2.20;;;25.40;48.00;;;;;;5093278;28;20024;-78
2021/06/12 12:37:42;;;;;;;5.00;2.20;;;25.20;48.80;;;;;;5085696;28;20106;-78
2021/06/12 12:40:26;;;;;;;5.72;1.98;;;25.10;49.00;;;;;;5101599;28;20524;-78
2021/06/12 12:43:01;;;;;;;8.05;2.28;;;25.00;48.70;;;;;;5105194;28;20476;-78